sensor_id;sensor_type;location;lat;lon;timestamp;P1;durP1;ratioP1;P2;durP2;ratioP2
44147;SDS011;29810;55.848;37.368;2022-10-28T00:01:34;17.55;;;14.93;;
44147;SDS011;29810;55.848;37.368;2022-10-28T00:04:37;19.62;;;14.87;;
44147;SDS011;29810;55.848;37.368;2022-10-28T00:07:38;17.70;;;14.23;;
44147;SDS011;29810;55.848;37.368;2022-10-28T00:10:41;21.65;;;15.50;;
44147;SDS011;29810;55.848;37.368;2022-10-28T00:13:42;20.90;;;15.02;;
44147;SDS011;29810;55.848;37.368;2022-10-28T00:16:45;18.95;;;13.77;;
44147;SDS011;29810;55.848;37.368;2022-10-28T00:19:47;17.67;;;13.70;;
44147;SDS011;29810;55.848;37.368;2022-10-28T00:22:48;19.05;;;14.38;;
44147;SDS011;29810;55.848;37.368;2022-10-28T00:25:50;16.12;;;13.48;;
44147;SDS011;29810;55.848;37.368;2022-10-28T00:28:56;18.60;;;14.02;;
44147;SDS011;29810;55.848;37.368;2022-10-28T00:31:59;17.55;;;13.65;;
44147;SDS011;29810;55.848;37.368;2022-10-28T00:35:00;19.23;;;13.85;;
44147;SDS011;29810;55.848;37.368;2022-10-28T00:38:02;17.73;;;14.20;;
44147;SDS011;29810;55.848;37.368;2022-10-28T00:41:04;19.45;;;14.15;;
44147;SDS011;29810;55.848;37.368;2022-10-28T00:47:52;17.85;;;14.15;;
44147;SDS011;29810;55.848;37.368;2022-10-28T00:50:56;19.37;;;14.18;;
44147;SDS011;29810;55.848;37.368;2022-10-28T00:53:58;17.65;;;14.50;;
44147;SDS011;29810;55.848;37.368;2022-10-28T00:57:00;20.85;;;15.05;;
44147;SDS011;29810;55.848;37.368;2022-10-28T01:00:05;20.27;;;14.70;;
44147;SDS011;29810;55.848;37.368;2022-10-28T01:03:07;19.67;;;14.02;;
44147;SDS011;29810;55.848;37.368;2022-10-28T01:06:09;21.77;;;14.50;;
44147;SDS011;29810;55.848;37.368;2022-10-28T01:09:11;22.17;;;15.15;;
44147;SDS011;29810;55.848;37.368;2022-10-28T01:15:44;17.60;;;13.40;;
44147;SDS011;29810;55.848;37.368;2022-10-28T01:22:12;19.73;;;13.10;;
44147;SDS011;29810;55.848;37.368;2022-10-28T01:25:27;18.37;;;13.85;;
44147;SDS011;29810;55.848;37.368;2022-10-28T01:31:50;18.92;;;13.48;;
44147;SDS011;29810;55.848;37.368;2022-10-28T01:47:58;17.30;;;12.60;;
44147;SDS011;29810;55.848;37.368;2022-10-28T01:51:08;16.20;;;11.80;;
44147;SDS011;29810;55.848;37.368;2022-10-28T01:54:18;15.70;;;11.65;;
44147;SDS011;29810;55.848;37.368;2022-10-28T01:57:24;16.02;;;11.88;;
44147;SDS011;29810;55.848;37.368;2022-10-28T02:00:25;16.40;;;11.63;;
44147;SDS011;29810;55.848;37.368;2022-10-28T02:03:28;14.65;;;11.32;;
44147;SDS011;29810;55.848;37.368;2022-10-28T02:06:29;15.50;;;11.43;;
44147;SDS011;29810;55.848;37.368;2022-10-28T02:10:20;15.45;;;12.10;;
44147;SDS011;29810;55.848;37.368;2022-10-28T02:13:12;16.83;;;11.63;;
44147;SDS011;29810;55.848;37.368;2022-10-28T02:16:25;16.25;;;11.70;;
44147;SDS011;29810;55.848;37.368;2022-10-28T02:23:10;14.63;;;11.00;;
44147;SDS011;29810;55.848;37.368;2022-10-28T02:26:31;13.73;;;10.88;;
44147;SDS011;29810;55.848;37.368;2022-10-28T02:29:46;14.15;;;11.07;;
44147;SDS011;29810;55.848;37.368;2022-10-28T02:33:00;13.32;;;11.35;;
44147;SDS011;29810;55.848;37.368;2022-10-28T02:39:15;14.18;;;11.65;;
44147;SDS011;29810;55.848;37.368;2022-10-28T02:42:25;14.02;;;11.25;;
44147;SDS011;29810;55.848;37.368;2022-10-28T02:45:30;13.40;;;10.40;;
44147;SDS011;29810;55.848;37.368;2022-10-28T02:48:38;13.38;;;10.02;;
44147;SDS011;29810;55.848;37.368;2022-10-28T02:51:49;13.77;;;10.57;;
44147;SDS011;29810;55.848;37.368;2022-10-28T02:54:56;11.82;;;9.90;;
44147;SDS011;29810;55.848;37.368;2022-10-28T02:57:59;14.20;;;10.75;;
44147;SDS011;29810;55.848;37.368;2022-10-28T03:01:01;15.65;;;11.18;;
44147;SDS011;29810;55.848;37.368;2022-10-28T03:04:02;14.90;;;10.75;;
44147;SDS011;29810;55.848;37.368;2022-10-28T03:07:05;13.20;;;10.60;;
44147;SDS011;29810;55.848;37.368;2022-10-28T03:10:06;14.18;;;10.43;;
44147;SDS011;29810;55.848;37.368;2022-10-28T03:13:08;15.35;;;10.88;;
44147;SDS011;29810;55.848;37.368;2022-10-28T03:16:09;14.75;;;10.82;;
44147;SDS011;29810;55.848;37.368;2022-10-28T03:19:14;14.85;;;11.05;;
44147;SDS011;29810;55.848;37.368;2022-10-28T03:22:21;15.23;;;11.02;;
44147;SDS011;29810;55.848;37.368;2022-10-28T03:25:23;15.20;;;11.25;;
44147;SDS011;29810;55.848;37.368;2022-10-28T03:28:24;17.20;;;11.05;;
44147;SDS011;29810;55.848;37.368;2022-10-28T03:31:26;14.48;;;11.02;;
44147;SDS011;29810;55.848;37.368;2022-10-28T03:34:27;13.85;;;11.02;;
44147;SDS011;29810;55.848;37.368;2022-10-28T03:37:29;13.45;;;10.38;;
44147;SDS011;29810;55.848;37.368;2022-10-28T03:40:30;14.77;;;11.07;;
44147;SDS011;29810;55.848;37.368;2022-10-28T03:43:32;13.32;;;10.77;;
44147;SDS011;29810;55.848;37.368;2022-10-28T03:46:34;13.68;;;10.43;;
44147;SDS011;29810;55.848;37.368;2022-10-28T03:49:35;14.75;;;10.85;;
44147;SDS011;29810;55.848;37.368;2022-10-28T03:52:37;13.30;;;10.05;;
44147;SDS011;29810;55.848;37.368;2022-10-28T03:55:38;13.13;;;10.32;;
44147;SDS011;29810;55.848;37.368;2022-10-28T03:58:40;14.32;;;10.60;;
44147;SDS011;29810;55.848;37.368;2022-10-28T04:01:41;12.68;;;10.18;;
44147;SDS011;29810;55.848;37.368;2022-10-28T04:04:43;14.18;;;10.20;;
44147;SDS011;29810;55.848;37.368;2022-10-28T04:07:45;15.90;;;9.80;;
44147;SDS011;29810;55.848;37.368;2022-10-28T04:10:48;15.70;;;11.02;;
44147;SDS011;29810;55.848;37.368;2022-10-28T04:13:51;13.95;;;10.07;;
44147;SDS011;29810;55.848;37.368;2022-10-28T04:16:53;12.70;;;10.25;;
44147;SDS011;29810;55.848;37.368;2022-10-28T04:19:54;14.38;;;10.55;;
44147;SDS011;29810;55.848;37.368;2022-10-28T04:22:55;13.48;;;10.50;;
44147;SDS011;29810;55.848;37.368;2022-10-28T04:25:57;15.15;;;10.75;;
44147;SDS011;29810;55.848;37.368;2022-10-28T04:28:59;13.60;;;10.82;;
44147;SDS011;29810;55.848;37.368;2022-10-28T04:32:00;17.70;;;11.65;;
44147;SDS011;29810;55.848;37.368;2022-10-28T04:35:02;17.33;;;12.20;;
44147;SDS011;29810;55.848;37.368;2022-10-28T04:38:04;15.38;;;11.10;;
44147;SDS011;29810;55.848;37.368;2022-10-28T04:41:05;15.30;;;11.30;;
44147;SDS011;29810;55.848;37.368;2022-10-28T04:44:08;16.67;;;11.60;;
44147;SDS011;29810;55.848;37.368;2022-10-28T04:47:10;16.87;;;10.90;;
44147;SDS011;29810;55.848;37.368;2022-10-28T04:50:11;16.58;;;11.38;;
44147;SDS011;29810;55.848;37.368;2022-10-28T04:53:14;16.87;;;12.30;;
44147;SDS011;29810;55.848;37.368;2022-10-28T04:56:16;16.55;;;11.68;;
44147;SDS011;29810;55.848;37.368;2022-10-28T04:59:18;17.98;;;11.73;;
44147;SDS011;29810;55.848;37.368;2022-10-28T05:02:20;19.55;;;12.32;;
44147;SDS011;29810;55.848;37.368;2022-10-28T05:05:23;18.25;;;13.02;;
44147;SDS011;29810;55.848;37.368;2022-10-28T05:08:25;20.62;;;12.98;;
44147;SDS011;29810;55.848;37.368;2022-10-28T05:11:27;22.75;;;12.63;;
44147;SDS011;29810;55.848;37.368;2022-10-28T05:14:28;20.62;;;13.35;;
44147;SDS011;29810;55.848;37.368;2022-10-28T05:17:30;21.45;;;13.32;;
44147;SDS011;29810;55.848;37.368;2022-10-28T05:20:31;23.87;;;13.93;;
44147;SDS011;29810;55.848;37.368;2022-10-28T05:23:33;18.52;;;12.93;;
44147;SDS011;29810;55.848;37.368;2022-10-28T05:26:34;27.25;;;12.95;;
44147;SDS011;29810;55.848;37.368;2022-10-28T05:29:36;20.58;;;12.63;;
44147;SDS011;29810;55.848;37.368;2022-10-28T05:32:37;19.37;;;12.68;;
44147;SDS011;29810;55.848;37.368;2022-10-28T05:35:39;19.75;;;12.93;;
44147;SDS011;29810;55.848;37.368;2022-10-28T05:38:40;20.60;;;13.25;;
44147;SDS011;29810;55.848;37.368;2022-10-28T05:41:45;22.60;;;13.62;;
44147;SDS011;29810;55.848;37.368;2022-10-28T05:44:46;21.00;;;13.95;;
44147;SDS011;29810;55.848;37.368;2022-10-28T05:47:48;23.65;;;13.48;;
44147;SDS011;29810;55.848;37.368;2022-10-28T05:50:49;21.45;;;13.40;;
44147;SDS011;29810;55.848;37.368;2022-10-28T05:53:51;22.17;;;13.60;;
44147;SDS011;29810;55.848;37.368;2022-10-28T05:56:52;21.45;;;14.82;;
44147;SDS011;29810;55.848;37.368;2022-10-28T05:59:54;21.50;;;13.38;;
44147;SDS011;29810;55.848;37.368;2022-10-28T06:03:02;23.45;;;13.38;;
44147;SDS011;29810;55.848;37.368;2022-10-28T06:06:10;23.83;;;14.63;;
44147;SDS011;29810;55.848;37.368;2022-10-28T06:09:12;23.50;;;14.50;;
44147;SDS011;29810;55.848;37.368;2022-10-28T06:12:13;24.48;;;13.93;;
44147;SDS011;29810;55.848;37.368;2022-10-28T06:15:15;21.75;;;14.32;;
44147;SDS011;29810;55.848;37.368;2022-10-28T06:18:17;20.85;;;13.95;;
44147;SDS011;29810;55.848;37.368;2022-10-28T06:21:18;23.45;;;13.90;;
44147;SDS011;29810;55.848;37.368;2022-10-28T06:24:20;23.62;;;13.98;;
44147;SDS011;29810;55.848;37.368;2022-10-28T06:27:21;20.95;;;13.90;;
44147;SDS011;29810;55.848;37.368;2022-10-28T06:30:23;20.60;;;13.93;;
44147;SDS011;29810;55.848;37.368;2022-10-28T06:33:26;21.80;;;13.90;;
44147;SDS011;29810;55.848;37.368;2022-10-28T06:36:28;22.80;;;14.90;;
44147;SDS011;29810;55.848;37.368;2022-10-28T06:39:29;23.52;;;14.43;;
44147;SDS011;29810;55.848;37.368;2022-10-28T06:42:31;20.35;;;14.43;;
44147;SDS011;29810;55.848;37.368;2022-10-28T06:45:33;22.00;;;15.10;;
44147;SDS011;29810;55.848;37.368;2022-10-28T06:48:36;21.17;;;14.43;;
44147;SDS011;29810;55.848;37.368;2022-10-28T06:51:37;22.00;;;15.25;;
44147;SDS011;29810;55.848;37.368;2022-10-28T06:54:39;20.50;;;15.13;;
44147;SDS011;29810;55.848;37.368;2022-10-28T06:57:41;25.58;;;16.37;;
44147;SDS011;29810;55.848;37.368;2022-10-28T07:00:43;31.30;;;15.68;;
44147;SDS011;29810;55.848;37.368;2022-10-28T07:03:44;22.52;;;15.07;;
44147;SDS011;29810;55.848;37.368;2022-10-28T07:06:46;25.80;;;16.00;;
44147;SDS011;29810;55.848;37.368;2022-10-28T07:09:48;22.75;;;15.00;;
44147;SDS011;29810;55.848;37.368;2022-10-28T07:12:51;21.15;;;14.60;;
44147;SDS011;29810;55.848;37.368;2022-10-28T07:15:53;24.55;;;16.02;;
44147;SDS011;29810;55.848;37.368;2022-10-28T07:18:56;21.45;;;14.75;;
44147;SDS011;29810;55.848;37.368;2022-10-28T07:21:57;23.77;;;15.23;;
44147;SDS011;29810;55.848;37.368;2022-10-28T07:24:59;20.90;;;13.95;;
44147;SDS011;29810;55.848;37.368;2022-10-28T07:28:00;23.52;;;15.02;;
44147;SDS011;29810;55.848;37.368;2022-10-28T07:31:02;24.90;;;15.50;;
44147;SDS011;29810;55.848;37.368;2022-10-28T07:34:04;22.85;;;15.15;;
44147;SDS011;29810;55.848;37.368;2022-10-28T07:37:05;24.37;;;15.85;;
44147;SDS011;29810;55.848;37.368;2022-10-28T07:40:07;19.90;;;14.52;;
44147;SDS011;29810;55.848;37.368;2022-10-28T07:43:09;19.02;;;14.43;;
44147;SDS011;29810;55.848;37.368;2022-10-28T07:46:10;31.33;;;14.65;;
44147;SDS011;29810;55.848;37.368;2022-10-28T07:49:12;23.87;;;13.93;;
44147;SDS011;29810;55.848;37.368;2022-10-28T07:52:13;27.52;;;14.85;;
44147;SDS011;29810;55.848;37.368;2022-10-28T07:55:15;28.12;;;14.87;;
44147;SDS011;29810;55.848;37.368;2022-10-28T07:58:16;21.42;;;14.20;;
44147;SDS011;29810;55.848;37.368;2022-10-28T08:01:19;22.02;;;15.10;;
44147;SDS011;29810;55.848;37.368;2022-10-28T08:04:21;26.20;;;15.15;;
44147;SDS011;29810;55.848;37.368;2022-10-28T08:07:22;23.77;;;14.80;;
44147;SDS011;29810;55.848;37.368;2022-10-28T08:10:25;26.17;;;14.77;;
44147;SDS011;29810;55.848;37.368;2022-10-28T08:13:26;24.37;;;14.80;;
44147;SDS011;29810;55.848;37.368;2022-10-28T08:16:28;27.02;;;15.20;;
44147;SDS011;29810;55.848;37.368;2022-10-28T08:19:30;30.95;;;14.77;;
44147;SDS011;29810;55.848;37.368;2022-10-28T08:22:31;24.33;;;15.10;;
44147;SDS011;29810;55.848;37.368;2022-10-28T08:25:33;22.60;;;15.18;;
44147;SDS011;29810;55.848;37.368;2022-10-28T08:28:35;21.65;;;13.82;;
44147;SDS011;29810;55.848;37.368;2022-10-28T08:31:37;22.92;;;13.75;;
44147;SDS011;29810;55.848;37.368;2022-10-28T08:34:39;18.30;;;13.75;;
44147;SDS011;29810;55.848;37.368;2022-10-28T08:37:41;18.80;;;13.20;;
44147;SDS011;29810;55.848;37.368;2022-10-28T08:40:50;15.73;;;12.80;;
44147;SDS011;29810;55.848;37.368;2022-10-28T08:47:35;22.08;;;13.30;;
44147;SDS011;29810;55.848;37.368;2022-10-28T08:50:46;19.30;;;13.25;;
44147;SDS011;29810;55.848;37.368;2022-10-28T08:54:13;19.35;;;12.88;;
44147;SDS011;29810;55.848;37.368;2022-10-28T08:57:20;17.12;;;12.93;;
44147;SDS011;29810;55.848;37.368;2022-10-28T09:00:32;17.62;;;12.77;;
44147;SDS011;29810;55.848;37.368;2022-10-28T09:03:38;17.98;;;12.85;;
44147;SDS011;29810;55.848;37.368;2022-10-28T09:06:42;16.98;;;12.52;;
44147;SDS011;29810;55.848;37.368;2022-10-28T09:09:43;19.60;;;12.45;;
44147;SDS011;29810;55.848;37.368;2022-10-28T09:19:54;18.15;;;12.00;;
44147;SDS011;29810;55.848;37.368;2022-10-28T09:23:07;17.52;;;11.90;;
44147;SDS011;29810;55.848;37.368;2022-10-28T09:26:36;15.00;;;10.38;;
44147;SDS011;29810;55.848;37.368;2022-10-28T09:29:49;13.90;;;9.80;;
44147;SDS011;29810;55.848;37.368;2022-10-28T09:36:40;13.82;;;10.18;;
44147;SDS011;29810;55.848;37.368;2022-10-28T09:39:50;16.58;;;10.25;;
44147;SDS011;29810;55.848;37.368;2022-10-28T09:46:22;12.52;;;9.50;;
44147;SDS011;29810;55.848;37.368;2022-10-28T09:49:28;13.40;;;9.43;;
44147;SDS011;29810;55.848;37.368;2022-10-28T09:52:40;13.27;;;9.90;;
44147;SDS011;29810;55.848;37.368;2022-10-28T09:55:50;13.75;;;9.07;;
44147;SDS011;29810;55.848;37.368;2022-10-28T09:58:52;16.87;;;9.45;;
44147;SDS011;29810;55.848;37.368;2022-10-28T10:01:58;15.02;;;9.32;;
44147;SDS011;29810;55.848;37.368;2022-10-28T10:05:00;14.60;;;9.52;;
44147;SDS011;29810;55.848;37.368;2022-10-28T10:08:04;15.07;;;9.38;;
44147;SDS011;29810;55.848;37.368;2022-10-28T10:11:09;13.25;;;8.65;;
44147;SDS011;29810;55.848;37.368;2022-10-28T10:17:58;11.18;;;8.38;;
44147;SDS011;29810;55.848;37.368;2022-10-28T10:21:02;13.15;;;8.65;;
44147;SDS011;29810;55.848;37.368;2022-10-28T10:24:20;16.65;;;8.50;;
44147;SDS011;29810;55.848;37.368;2022-10-28T10:27:22;13.85;;;8.70;;
44147;SDS011;29810;55.848;37.368;2022-10-28T10:30:35;14.30;;;8.38;;
44147;SDS011;29810;55.848;37.368;2022-10-28T10:33:39;18.23;;;9.15;;
44147;SDS011;29810;55.848;37.368;2022-10-28T10:36:46;13.85;;;8.98;;
44147;SDS011;29810;55.848;37.368;2022-10-28T10:40:04;12.37;;;9.43;;
44147;SDS011;29810;55.848;37.368;2022-10-28T10:46:16;15.32;;;8.88;;
44147;SDS011;29810;55.848;37.368;2022-10-28T10:49:18;12.73;;;8.45;;
44147;SDS011;29810;55.848;37.368;2022-10-28T10:52:20;11.40;;;8.48;;
44147;SDS011;29810;55.848;37.368;2022-10-28T10:55:39;11.80;;;8.25;;
44147;SDS011;29810;55.848;37.368;2022-10-28T10:58:48;10.60;;;7.95;;
44147;SDS011;29810;55.848;37.368;2022-10-28T11:01:54;9.20;;;6.95;;
44147;SDS011;29810;55.848;37.368;2022-10-28T11:04:58;9.05;;;6.80;;
44147;SDS011;29810;55.848;37.368;2022-10-28T11:08:10;10.30;;;7.20;;
44147;SDS011;29810;55.848;37.368;2022-10-28T11:11:40;12.52;;;7.30;;
44147;SDS011;29810;55.848;37.368;2022-10-28T11:14:52;11.48;;;7.57;;
44147;SDS011;29810;55.848;37.368;2022-10-28T11:21:13;12.68;;;6.80;;
44147;SDS011;29810;55.848;37.368;2022-10-28T11:44:27;13.38;;;7.47;;
44147;SDS011;29810;55.848;37.368;2022-10-28T11:53:56;16.00;;;7.25;;
44147;SDS011;29810;55.848;37.368;2022-10-28T12:00:19;14.65;;;6.82;;
44147;SDS011;29810;55.848;37.368;2022-10-28T12:06:47;12.70;;;6.93;;
44147;SDS011;29810;55.848;37.368;2022-10-28T12:16:38;20.65;;;7.05;;
44147;SDS011;29810;55.848;37.368;2022-10-28T12:19:48;8.82;;;6.45;;
44147;SDS011;29810;55.848;37.368;2022-10-28T12:22:55;11.82;;;7.15;;
44147;SDS011;29810;55.848;37.368;2022-10-28T12:26:00;9.90;;;6.53;;
44147;SDS011;29810;55.848;37.368;2022-10-28T12:32:30;12.45;;;6.87;;
44147;SDS011;29810;55.848;37.368;2022-10-28T12:35:35;11.25;;;6.70;;
44147;SDS011;29810;55.848;37.368;2022-10-28T12:38:50;13.15;;;6.70;;
44147;SDS011;29810;55.848;37.368;2022-10-28T12:41:59;11.30;;;6.35;;
44147;SDS011;29810;55.848;37.368;2022-10-28T12:45:16;12.00;;;6.50;;
44147;SDS011;29810;55.848;37.368;2022-10-28T12:51:35;11.63;;;6.10;;
44147;SDS011;29810;55.848;37.368;2022-10-28T12:54:48;11.55;;;6.30;;
44147;SDS011;29810;55.848;37.368;2022-10-28T12:58:01;11.23;;;6.10;;
44147;SDS011;29810;55.848;37.368;2022-10-28T13:01:20;9.27;;;5.95;;
44147;SDS011;29810;55.848;37.368;2022-10-28T13:04:25;11.60;;;5.82;;
44147;SDS011;29810;55.848;37.368;2022-10-28T13:24:14;9.93;;;5.68;;
44147;SDS011;29810;55.848;37.368;2022-10-28T13:27:35;12.43;;;6.30;;
44147;SDS011;29810;55.848;37.368;2022-10-28T13:30:37;16.23;;;6.28;;
44147;SDS011;29810;55.848;37.368;2022-10-28T13:33:39;10.90;;;6.10;;
44147;SDS011;29810;55.848;37.368;2022-10-28T13:37:01;13.85;;;6.40;;
44147;SDS011;29810;55.848;37.368;2022-10-28T13:40:05;12.90;;;6.80;;
44147;SDS011;29810;55.848;37.368;2022-10-28T13:43:54;17.23;;;6.43;;
44147;SDS011;29810;55.848;37.368;2022-10-28T13:50:20;15.25;;;7.80;;
44147;SDS011;29810;55.848;37.368;2022-10-28T13:53:36;13.15;;;8.02;;
44147;SDS011;29810;55.848;37.368;2022-10-28T13:56:42;15.93;;;8.40;;
44147;SDS011;29810;55.848;37.368;2022-10-28T14:00:00;13.62;;;7.47;;
44147;SDS011;29810;55.848;37.368;2022-10-28T14:03:12;11.27;;;7.45;;
44147;SDS011;29810;55.848;37.368;2022-10-28T14:06:28;13.18;;;7.60;;
44147;SDS011;29810;55.848;37.368;2022-10-28T14:09:31;15.15;;;6.87;;
44147;SDS011;29810;55.848;37.368;2022-10-28T14:12:35;12.90;;;6.85;;
44147;SDS011;29810;55.848;37.368;2022-10-28T14:15:44;13.35;;;7.60;;
44147;SDS011;29810;55.848;37.368;2022-10-28T14:18:56;11.68;;;7.50;;
44147;SDS011;29810;55.848;37.368;2022-10-28T14:22:04;9.68;;;7.20;;
44147;SDS011;29810;55.848;37.368;2022-10-28T14:28:48;11.82;;;7.93;;
44147;SDS011;29810;55.848;37.368;2022-10-28T14:31:52;14.00;;;8.55;;
44147;SDS011;29810;55.848;37.368;2022-10-28T14:34:53;13.50;;;8.27;;
44147;SDS011;29810;55.848;37.368;2022-10-28T14:50:55;11.55;;;9.02;;
44147;SDS011;29810;55.848;37.368;2022-10-28T14:53:58;12.30;;;9.02;;
44147;SDS011;29810;55.848;37.368;2022-10-28T14:57:02;14.43;;;9.10;;
44147;SDS011;29810;55.848;37.368;2022-10-28T15:00:05;12.70;;;9.50;;
44147;SDS011;29810;55.848;37.368;2022-10-28T15:03:09;15.25;;;9.98;;
44147;SDS011;29810;55.848;37.368;2022-10-28T15:06:18;14.57;;;9.63;;
44147;SDS011;29810;55.848;37.368;2022-10-28T15:09:26;13.52;;;9.52;;
44147;SDS011;29810;55.848;37.368;2022-10-28T15:12:30;12.50;;;9.35;;
44147;SDS011;29810;55.848;37.368;2022-10-28T15:15:33;13.77;;;10.02;;
44147;SDS011;29810;55.848;37.368;2022-10-28T15:18:35;14.57;;;9.52;;
44147;SDS011;29810;55.848;37.368;2022-10-28T15:21:36;15.88;;;10.77;;
44147;SDS011;29810;55.848;37.368;2022-10-28T15:24:38;16.27;;;10.98;;
44147;SDS011;29810;55.848;37.368;2022-10-28T15:27:41;14.90;;;10.10;;
44147;SDS011;29810;55.848;37.368;2022-10-28T15:30:44;13.07;;;9.88;;
44147;SDS011;29810;55.848;37.368;2022-10-28T15:33:46;15.32;;;10.38;;
44147;SDS011;29810;55.848;37.368;2022-10-28T15:36:48;15.30;;;10.02;;
44147;SDS011;29810;55.848;37.368;2022-10-28T15:39:50;17.30;;;11.25;;
44147;SDS011;29810;55.848;37.368;2022-10-28T15:46:09;14.98;;;10.93;;
44147;SDS011;29810;55.848;37.368;2022-10-28T15:52:47;15.00;;;10.02;;
44147;SDS011;29810;55.848;37.368;2022-10-28T15:56:26;14.27;;;9.90;;
44147;SDS011;29810;55.848;37.368;2022-10-28T15:59:21;13.75;;;10.68;;
44147;SDS011;29810;55.848;37.368;2022-10-28T16:02:39;15.38;;;10.80;;
44147;SDS011;29810;55.848;37.368;2022-10-28T16:05:42;16.52;;;12.32;;
44147;SDS011;29810;55.848;37.368;2022-10-28T16:08:44;15.25;;;11.82;;
44147;SDS011;29810;55.848;37.368;2022-10-28T16:11:48;18.08;;;12.10;;
44147;SDS011;29810;55.848;37.368;2022-10-28T16:14:53;17.17;;;10.90;;
44147;SDS011;29810;55.848;37.368;2022-10-28T16:18:00;15.30;;;10.38;;
44147;SDS011;29810;55.848;37.368;2022-10-28T16:21:01;15.30;;;10.80;;
44147;SDS011;29810;55.848;37.368;2022-10-28T16:24:05;14.35;;;12.02;;
44147;SDS011;29810;55.848;37.368;2022-10-28T16:27:28;14.95;;;10.73;;
44147;SDS011;29810;55.848;37.368;2022-10-28T16:30:32;13.98;;;10.75;;
44147;SDS011;29810;55.848;37.368;2022-10-28T16:33:33;14.95;;;10.90;;
44147;SDS011;29810;55.848;37.368;2022-10-28T16:36:37;14.80;;;10.80;;
44147;SDS011;29810;55.848;37.368;2022-10-28T16:39:38;17.92;;;11.57;;
44147;SDS011;29810;55.848;37.368;2022-10-28T16:42:40;17.10;;;11.52;;
44147;SDS011;29810;55.848;37.368;2022-10-28T16:45:43;16.62;;;11.70;;
44147;SDS011;29810;55.848;37.368;2022-10-28T16:48:45;14.82;;;10.93;;
44147;SDS011;29810;55.848;37.368;2022-10-28T16:51:46;16.90;;;11.57;;
44147;SDS011;29810;55.848;37.368;2022-10-28T16:54:49;16.40;;;11.00;;
44147;SDS011;29810;55.848;37.368;2022-10-28T16:57:51;13.95;;;10.77;;
44147;SDS011;29810;55.848;37.368;2022-10-28T17:00:53;15.00;;;11.45;;
44147;SDS011;29810;55.848;37.368;2022-10-28T17:03:55;16.80;;;12.10;;
44147;SDS011;29810;55.848;37.368;2022-10-28T17:06:57;16.65;;;11.20;;
44147;SDS011;29810;55.848;37.368;2022-10-28T17:09:58;15.70;;;11.30;;
44147;SDS011;29810;55.848;37.368;2022-10-28T17:13:00;15.48;;;11.98;;
44147;SDS011;29810;55.848;37.368;2022-10-28T17:16:03;16.48;;;11.57;;
44147;SDS011;29810;55.848;37.368;2022-10-28T17:19:04;14.45;;;11.00;;
44147;SDS011;29810;55.848;37.368;2022-10-28T17:22:06;16.02;;;11.55;;
44147;SDS011;29810;55.848;37.368;2022-10-28T17:25:09;14.32;;;10.88;;
44147;SDS011;29810;55.848;37.368;2022-10-28T17:28:10;15.45;;;11.18;;
44147;SDS011;29810;55.848;37.368;2022-10-28T17:31:12;15.27;;;11.27;;
44147;SDS011;29810;55.848;37.368;2022-10-28T17:34:15;15.65;;;11.43;;
44147;SDS011;29810;55.848;37.368;2022-10-28T17:37:17;15.18;;;11.90;;
44147;SDS011;29810;55.848;37.368;2022-10-28T17:40:18;15.07;;;12.02;;
44147;SDS011;29810;55.848;37.368;2022-10-28T17:43:20;16.80;;;11.95;;
44147;SDS011;29810;55.848;37.368;2022-10-28T17:46:22;15.25;;;11.40;;
44147;SDS011;29810;55.848;37.368;2022-10-28T17:49:24;17.12;;;11.98;;
44147;SDS011;29810;55.848;37.368;2022-10-28T17:52:26;15.57;;;10.85;;
44147;SDS011;29810;55.848;37.368;2022-10-28T17:55:28;15.07;;;10.73;;
44147;SDS011;29810;55.848;37.368;2022-10-28T17:58:29;17.52;;;11.85;;
44147;SDS011;29810;55.848;37.368;2022-10-28T18:01:31;13.43;;;10.85;;
44147;SDS011;29810;55.848;37.368;2022-10-28T18:04:34;16.60;;;11.50;;
44147;SDS011;29810;55.848;37.368;2022-10-28T18:07:36;16.05;;;11.90;;
44147;SDS011;29810;55.848;37.368;2022-10-28T18:10:38;17.33;;;11.27;;
44147;SDS011;29810;55.848;37.368;2022-10-28T18:13:40;14.07;;;11.30;;
44147;SDS011;29810;55.848;37.368;2022-10-28T18:16:53;13.60;;;10.57;;
44147;SDS011;29810;55.848;37.368;2022-10-28T18:19:56;16.37;;;11.82;;
44147;SDS011;29810;55.848;37.368;2022-10-28T18:23:01;16.00;;;11.10;;
44147;SDS011;29810;55.848;37.368;2022-10-28T18:26:04;18.40;;;11.70;;
44147;SDS011;29810;55.848;37.368;2022-10-28T18:29:08;13.23;;;10.85;;
44147;SDS011;29810;55.848;37.368;2022-10-28T18:32:11;13.82;;;11.45;;
44147;SDS011;29810;55.848;37.368;2022-10-28T18:35:13;17.42;;;11.23;;
44147;SDS011;29810;55.848;37.368;2022-10-28T18:38:14;17.23;;;10.73;;
44147;SDS011;29810;55.848;37.368;2022-10-28T18:41:17;16.25;;;11.23;;
44147;SDS011;29810;55.848;37.368;2022-10-28T18:44:22;15.18;;;12.48;;
44147;SDS011;29810;55.848;37.368;2022-10-28T18:47:32;20.30;;;15.73;;
44147;SDS011;29810;55.848;37.368;2022-10-28T18:50:35;17.85;;;15.15;;
44147;SDS011;29810;55.848;37.368;2022-10-28T18:53:38;17.65;;;15.02;;
44147;SDS011;29810;55.848;37.368;2022-10-28T18:56:41;20.35;;;15.65;;
44147;SDS011;29810;55.848;37.368;2022-10-28T18:59:43;19.48;;;14.30;;
44147;SDS011;29810;55.848;37.368;2022-10-28T19:02:44;17.77;;;13.20;;
44147;SDS011;29810;55.848;37.368;2022-10-28T19:05:46;19.60;;;13.57;;
44147;SDS011;29810;55.848;37.368;2022-10-28T19:08:51;17.42;;;13.10;;
44147;SDS011;29810;55.848;37.368;2022-10-28T19:11:55;18.95;;;13.50;;
44147;SDS011;29810;55.848;37.368;2022-10-28T19:14:59;19.40;;;13.70;;
44147;SDS011;29810;55.848;37.368;2022-10-28T19:18:04;22.65;;;13.20;;
44147;SDS011;29810;55.848;37.368;2022-10-28T19:21:07;19.37;;;12.60;;
44147;SDS011;29810;55.848;37.368;2022-10-28T19:24:12;23.10;;;14.38;;
44147;SDS011;29810;55.848;37.368;2022-10-28T19:27:14;19.17;;;13.40;;
44147;SDS011;29810;55.848;37.368;2022-10-28T19:30:15;18.12;;;12.80;;
44147;SDS011;29810;55.848;37.368;2022-10-28T19:33:17;20.48;;;12.40;;
44147;SDS011;29810;55.848;37.368;2022-10-28T19:36:20;20.27;;;13.10;;
44147;SDS011;29810;55.848;37.368;2022-10-28T19:39:22;21.05;;;14.05;;
44147;SDS011;29810;55.848;37.368;2022-10-28T19:42:25;23.52;;;13.80;;
44147;SDS011;29810;55.848;37.368;2022-10-28T19:45:27;20.37;;;13.57;;
44147;SDS011;29810;55.848;37.368;2022-10-28T19:48:28;21.52;;;13.18;;
44147;SDS011;29810;55.848;37.368;2022-10-28T19:51:37;19.50;;;13.07;;
44147;SDS011;29810;55.848;37.368;2022-10-28T19:54:43;18.35;;;13.02;;
44147;SDS011;29810;55.848;37.368;2022-10-28T19:57:44;17.80;;;13.27;;
44147;SDS011;29810;55.848;37.368;2022-10-28T20:00:47;20.08;;;13.73;;
44147;SDS011;29810;55.848;37.368;2022-10-28T20:03:50;22.40;;;14.15;;
44147;SDS011;29810;55.848;37.368;2022-10-28T20:06:52;22.77;;;13.80;;
44147;SDS011;29810;55.848;37.368;2022-10-28T20:09:54;20.55;;;13.95;;
44147;SDS011;29810;55.848;37.368;2022-10-28T20:12:56;24.40;;;15.65;;
44147;SDS011;29810;55.848;37.368;2022-10-28T20:16:03;20.35;;;13.75;;
44147;SDS011;29810;55.848;37.368;2022-10-28T20:19:07;24.23;;;15.32;;